Heat Index SAI AWOS Graphical Display Untitled Document
Ulysses Airport (ULS) Grant County, Kansas
000
03:41
18/04/23
00
N/A
N/A
30.17
N/A
3067
45(F), 7(C)
38(F), 3(C)
45 F
76%
CLR
10
N/A
N/A
N/A
03:41 zulu Wind Calm, Altimeter 30.17
METAR KULS 230341Z AUTO 00000KT 10SM CLR 07/03 A3017 A02
METAR:
FAA Disclaimer--Advisory Use ONLY, not for flight info-- 6/29/2009: FBO 620-356-4528 FUEL- 100LL $3.79self-serve or $3.90 for full service, Jet A $3.21 full service. AWOS 118.95mhz, 620-424-3747. Pilots with cellphones (smartphones) can now view awos at http://www.saiawos3.com/ULS
INFO:
Wind Direction:
Wind Speed:
Wind Gust:
Wind Variable:
Altimeter:
Dens Alt:
Elev:
Temp:
Dwpt:
Wind Chill
Rel Humidity:
Ceiling:
Visibility:
Prsnt Wea:
PCPN:
Remarks:
How to read the WebPage